Date,TemperatureHighF,TemperatureAvgF,TemperatureLowF,DewpointHighF,DewpointAvgF,DewpointLowF,HumidityHigh,HumidityAvg,HumidityLow,PressureMaxIn,PressureMinIn,WindSpeedMaxMPH,WindSpeedAvgMPH,GustSpeedMaxMPH,PrecipitationSumIn
2013-1-1,28.7,26.9,24.3,24.2,21.7,18.6,90,81,69,30.08,29.98,4,0,4,0.00
2013-1-4,29.9,23.9,16.2,23.7,19.4,12.5,88,83,73,30.17,30.07,3,1,13,0.00
2013-1-5,34.6,27.9,18.1,31.5,24.6,16.4,95,87,74,30.19,29.93,1,0,6,0.01
2013-1-6,35.5,33.5,30.2,32.6,30.0,26.2,91,87,80,30.22,29.83,4,1,12,0.00
2013-1-7,34.6,28.5,20.3,29.0,24.3,18.6,94,85,74,30.30,30.08,2,0,13,0.00
2013-1-8,39.0,31.2,24.7,30.8,26.7,22.5,94,84,72,30.15,30.02,0,0,4,0.03
2013-1-9,46.9,39.5,29.6,36.4,31.2,25.6,88,73,50,30.38,29.97,5,1,15,0.08
2013-1-10,41.3,33.1,24.1,36.3,29.0,22.5,96,85,68,30.44,29.96,10,1,11,0.30
2013-1-11,54.7,47.2,37.4,52.9,45.7,36.4,99,95,85,29.96,29.65,13,1,17,0.31
2013-2-1,12.3,9.4,6.3,8.1,5.8,3.8,92,85,80,30.27,30.17,7,0,7,0.00
2013-2-2,26.1,18.5,7.2,24.4,16.2,5.4,95,91,83,30.17,29.89,14,0,14,0.00
2013-2-3,22.2,17.7,14.0,20.4,14.9,11.6,93,89,84,29.97,29.86,12,0,12,0.00
2013-2-4,28.2,22.9,18.7,24.8,20.6,15.8,95,91,86,29.97,29.78,3,0,3,0.00
2013-2-5,31.1,23.5,9.7,28.5,21.3,7.5,97,92,78,29.93,29.74,7,0,7,0.06
2013-2-6,33.4,28.4,19.4,26.8,23.2,17.3,95,81,64,30.18,29.93,3,0,5,0.08
2013-2-7,41.9,33.1,26.8,33.2,28.4,23.5,97,83,67,30.11,29.72,7,0,7,0.26
2013-2-8,33.6,30.7,22.8,33.0,27.1,20.5,98,87,73,30.29,29.73,12,1,12,0.00
2013-2-9,35.4,25.7,14.3,26.0,21.1,12.5,96,83,66,30.35,30.10,8,0,8,0.01
2013-2-10,45.7,36.6,27.6,45.2,32.7,23.6,98,85,75,30.11,29.50,7,0,7,0.05
2013-2-11,47.4,36.8,31.0,45.7,30.3,24.2,98,77,70,29.89,29.46,23,4,23,0.01
2013-2-12,32.9,30.0,28.4,25.6,24.6,23.0,84,80,72,30.01,29.87,13,1,13,0.00
2013-2-13,44.4,32.1,21.7,32.9,26.7,19.4,95,81,59,29.87,29.63,7,0,7,0.00
2013-2-14,40.9,36.0,29.7,36.0,31.2,24.8,95,83,67,29.84,29.60,18,1,18,0.00
2013-2-15,33.9,27.9,21.7,27.0,22.6,18.1,90,81,63,30.09,29.84,12,1,12,0.01
2013-2-16,24.1,19.3,10.3,21.4,15.3,7.6,93,84,69,30.06,29.99,13,1,13,0.00
2013-2-17,28.6,20.0,11.0,17.3,13.5,8.6,94,77,54,30.15,30.04,7,0,7,0.02
2013-2-18,51.8,37.9,23.6,44.6,30.1,15.4,94,74,62,30.06,29.37,11,1,11,0.12
2013-2-19,44.9,23.2,16.1,43.3,20.0,12.7,95,88,76,29.99,29.33,16,2,16,0.05
2013-2-20,24.3,20.0,15.8,20.3,17.1,13.6,93,88,81,30.24,29.99,15,1,15,0.00
2013-2-21,27.3,24.0,20.6,21.9,19.5,16.6,90,83,76,30.30,30.01,13,1,13,0.01
2013-2-22,33.7,27.8,21.7,33.2,26.4,17.5,98,94,81,30.02,29.76,15,2,15,0.01
2013-2-23,30.9,28.2,26.2,26.0,22.8,20.3,88,80,68,29.88,29.82,11,1,11,0.00
2013-2-24,37.7,28.9,22.6,27.5,23.8,20.1,95,82,62,30.08,29.86,9,0,9,0.07
2013-2-25,41.7,30.7,18.8,29.6,24.7,17.4,95,80,57,30.14,29.94,6,0,6,0.06
2013-2-26,34.8,32.9,30.6,32.9,29.2,25.0,97,87,71,29.95,29.37,16,2,16,0.04
2013-2-27,36.1,33.7,32.8,35.1,33.0,32.3,99,98,95,29.52,29.37,4,0,4,0.31
2013-2-28,39.2,34.5,31.7,33.6,32.0,29.1,99,91,79,29.90,29.51,9,1,9,0.09
2013-3-1,36.4,31.1,26.3,29.2,25.3,20.2,89,79,66,30.07,29.89,7,0,7,0.00
2013-3-2,32.6,27.5,24.1,22.7,20.6,17.9,83,75,63,30.06,30.00,11,1,11,0.00
2013-3-3,33.4,26.5,19.0,22.7,18.7,15.9,89,73,55,30.03,29.97,10,1,10,0.00
2013-3-7,37.3,31.0,21.3,28.9,25.9,19.5,95,82,69,30.34,30.28,6,0,6,0.04
2013-3-8,41.0,27.8,13.1,26.5,21.3,10.9,96,78,50,30.43,30.31,6,0,6,0.05
2013-3-9,44.0,36.0,24.0,35.2,29.4,21.1,91,77,61,30.31,29.86,10,0,10,0.01
2013-3-10,58.4,49.3,39.7,46.3,40.7,34.7,94,73,61,29.86,29.59,9,0,9,0.06
2013-3-11,53.5,44.7,34.9,48.8,42.2,31.9,99,91,65,29.67,29.42,14,1,14,0.06
2013-3-12,36.1,33.3,31.4,32.2,29.6,25.6,96,87,68,29.83,29.65,12,1,12,0.00
2013-3-18,35.3,33.3,0.0,34.5,32.0,0.0,97,93,82,29.65,29.50,15,1,15,0.03
2013-3-19,34.1,27.3,21.1,24.4,18.4,15.2,85,70,51,29.95,29.64,26,3,26,0.00
2013-3-20,29.4,23.3,17.9,19.8,16.1,11.4,91,74,59,29.96,29.89,17,2,17,0.00
2013-3-21,31.4,23.3,15.3,24.4,18.6,13.4,93,83,69,29.94,29.88,18,1,18,0.03
2013-3-22,40.1,29.1,18.9,23.9,20.2,13.9,93,71,41,29.99,29.92,10,1,10,0.00
2013-3-23,38.6,29.3,21.1,27.0,23.6,19.6,95,80,61,30.06,29.93,12,0,12,0.00
2013-3-24,38.0,32.3,25.1,28.2,26.1,22.4,91,78,63,29.94,29.52,12,1,12,0.00
2013-3-25,36.7,33.5,29.3,31.4,28.2,25.2,90,81,71,29.90,29.51,9,1,13,0.01
2013-3-26,43.2,35.4,31.6,32.9,30.2,28.2,91,81,58,30.12,29.90,15,1,15,0.00
2013-3-27,44.4,36.2,28.0,34.5,27.6,21.3,95,73,45,30.21,30.12,17,1,17,0.00
2013-3-28,51.2,36.6,24.3,31.0,24.9,21.1,92,65,38,30.24,30.19,11,0,11,0.00
2013-3-29,52.4,37.2,23.7,28.3,23.2,19.9,92,62,30,30.24,30.14,10,0,11,0.00
2013-3-30,57.3,41.1,23.6,36.4,29.0,21.0,92,65,41,30.16,29.81,8,0,8,0.00
2013-3-31,60.9,48.6,39.1,44.6,38.0,28.1,97,69,38,29.81,29.56,20,2,20,0.01
2013-4-1,39.1,33.4,25.5,31.9,20.5,15.7,81,60,41,30.06,29.70,12,2,18,0.00
2013-4-2,42.0,31.6,21.1,22.4,17.1,9.6,89,59,29,30.20,30.05,15,1,15,0.00
2013-4-3,47.1,33.4,19.8,23.6,16.5,7.5,89,56,22,30.35,30.20,12,0,12,0.00
2013-4-4,56.9,39.8,22.9,30.5,22.2,18.9,86,55,24,30.25,29.86,7,0,7,0.00
2013-4-5,52.6,42.0,31.0,32.3,27.1,18.4,82,58,27,30.11,29.84,11,1,11,0.00
2013-4-6,63.9,48.9,31.0,43.7,31.6,26.1,83,53,34,30.08,29.59,15,1,15,0.00
2013-4-7,61.0,51.9,40.9,49.3,42.0,35.4,83,70,52,29.89,29.52,15,2,15,0.03
2013-4-8,68.2,50.5,40.9,59.3,44.0,35.2,95,79,60,29.89,29.56,21,2,21,0.06
2013-4-9,75.7,56.3,39.4,62.7,49.8,38.0,96,80,58,29.91,29.69,10,0,10,0.00
2013-4-10,55.0,46.4,41.6,50.9,44.7,40.8,97,94,86,29.84,29.71,10,1,10,0.09
2013-4-11,43.3,42.0,39.9,42.4,41.2,39.3,98,97,95,29.78,29.50,14,3,14,0.98
2013-4-12,44.3,40.3,37.9,40.4,37.7,34.0,99,91,80,29.74,29.48,12,1,12,0.14
2013-4-13,43.9,39.0,34.6,35.2,32.5,29.3,94,78,59,29.90,29.74,15,1,15,0.01
2013-4-14,59.9,46.6,35.5,47.5,38.8,31.4,92,75,58,29.95,29.71,14,2,14,0.00
2013-4-15,64.7,56.7,47.2,57.4,51.5,44.7,98,83,73,29.83,29.69,11,0,11,0.17
2013-4-16,54.5,47.4,42.6,45.7,40.9,33.4,98,80,52,30.14,29.82,11,1,11,0.38
2013-4-17,54.4,48.0,43.8,46.5,41.4,36.5,97,78,64,30.17,29.79,21,2,21,0.74
2013-4-18,70.8,58.9,46.6,66.1,57.1,45.8,98,94,79,29.83,29.38,15,1,15,0.54
2013-4-19,59.4,40.1,33.5,58.8,35.6,31.0,98,84,73,29.76,29.38,17,3,17,0.39
2013-4-20,42.5,35.8,29.4,32.4,25.5,19.6,95,68,42,30.37,29.76,10,2,17,0.04
2013-4-21,51.8,39.7,26.0,32.7,27.2,20.8,90,63,44,30.49,30.31,11,1,11,0.00
2013-4-22,65.0,50.6,32.9,38.3,33.5,29.6,89,56,29,30.31,30.01,10,0,10,0.00
2013-4-23,66.5,52.5,41.0,55.6,45.2,38.0,96,78,56,30.01,29.75,10,0,10,0.52
2013-4-24,45.4,39.3,35.8,40.1,33.7,25.0,97,82,47,30.07,29.74,15,1,15,0.12
2013-4-25,51.0,42.4,35.2,41.0,34.2,29.3,91,74,48,30.27,30.01,16,1,16,0.04
2013-4-26,63.8,48.0,30.3,42.5,36.4,28.8,96,68,42,30.33,30.20,11,0,11,0.00
2013-4-27,69.3,55.8,37.7,47.2,40.3,34.5,95,60,29,30.23,29.93,10,0,10,0.00
2013-4-28,58.9,54.7,49.6,54.9,51.6,46.9,96,90,65,29.93,29.73,4,0,4,0.12
2013-4-29,72.5,59.9,45.7,58.2,53.1,45.1,99,80,54,29.84,29.75,9,0,9,0.00
2013-4-30,80.2,67.5,56.2,63.3,57.7,52.1,87,72,54,29.88,29.76,10,1,10,0.00
2013-5-1,84.3,71.9,56.3,61.1,56.8,52.8,89,61,37,30.04,29.88,7,0,7,0.00
2013-5-2,82.4,68.1,50.6,61.8,56.0,45.8,90,67,42,30.06,29.95,9,0,9,0.00
2013-5-3,78.8,63.9,46.4,60.8,51.8,43.0,91,68,46,29.99,29.84,11,1,11,0.00
2013-5-4,73.1,65.0,58.2,52.5,46.5,40.4,64,52,34,29.92,29.85,11,1,11,0.00
2013-5-5,74.0,63.1,51.8,50.8,45.8,42.5,74,55,37,29.92,29.86,10,1,10,0.00
2013-5-6,78.8,64.9,55.2,55.5,46.2,36.9,86,53,25,29.91,29.81,7,0,7,0.00
2013-5-7,77.5,64.4,49.9,57.6,52.3,47.6,93,67,44,29.92,29.85,6,0,6,0.00
2013-5-8,77.8,64.7,52.4,62.0,53.5,48.3,94,70,42,29.92,29.84,9,0,9,0.16
2013-5-9,80.8,64.2,49.1,60.5,53.2,45.3,97,71,31,29.87,29.75,6,0,6,0.05
2013-5-10,62.7,56.9,46.4,60.5,54.5,45.2,98,92,74,29.81,29.64,13,1,13,0.21
2013-5-11,55.7,46.7,38.3,51.1,43.1,35.2,97,88,64,29.89,29.72,22,1,22,0.12
2013-5-12,49.4,41.9,34.8,36.7,33.0,29.7,95,72,48,30.04,29.89,15,1,15,0.07
2013-5-13,58.5,46.5,32.3,35.5,30.8,21.5,95,60,25,30.10,29.98,12,0,12,0.00
2013-5-14,83.0,65.2,49.0,59.4,46.3,29.5,71,51,38,29.99,29.57,12,0,12,0.11
2013-5-15,79.3,73.3,58.3,62.3,55.4,48.4,83,55,37,29.71,29.50,15,1,15,0.00
2013-5-16,82.5,66.4,50.8,55.2,50.2,43.3,96,62,28,29.87,29.70,7,0,7,0.11
2013-5-17,79.2,67.3,56.0,55.5,49.5,43.0,80,54,40,29.96,29.85,6,0,6,0.00
2013-5-18,80.8,67.7,57.0,62.5,52.9,42.2,84,60,44,29.99,29.86,6,0,6,0.03
2013-5-19,85.0,72.8,58.7,68.6,59.6,51.1,80,64,47,29.88,29.69,4,0,4,0.00
2013-5-20,87.7,77.7,68.9,73.1,67.5,63.7,93,72,48,29.74,29.64,7,0,7,0.13
2013-5-21,80.8,72.3,63.4,69.5,65.7,61.4,98,81,62,29.70,29.57,9,0,9,0.47
2013-5-22,75.7,68.0,62.5,68.1,64.6,59.7,96,89,68,29.62,29.53,8,0,8,0.25
2013-5-23,62.9,53.7,44.3,60.5,51.9,42.3,97,94,90,30.11,29.61,5,0,9,0.03
2013-5-24,58.6,48.0,38.2,45.7,40.3,36.9,96,76,50,30.30,30.11,7,0,7,0.10
2013-5-25,65.3,52.5,38.1,49.2,42.8,37.1,97,73,41,30.30,30.16,5,0,5,0.01
2013-5-26,69.0,58.4,44.7,48.0,44.0,40.7,94,62,39,30.22,30.07,4,0,4,0.08
2013-5-27,61.9,55.9,51.9,54.8,49.8,38.3,98,83,43,30.08,29.82,7,1,7,0.31
2013-5-28,77.9,67.5,55.3,72.1,65.1,54.8,99,92,76,29.83,29.67,16,0,16,0.46
2013-5-29,81.5,71.4,61.8,71.9,66.2,61.2,99,85,66,29.87,29.72,11,0,11,0.17
2013-5-30,84.5,75.3,66.2,72.3,67.6,63.4,91,78,61,29.89,29.77,10,0,10,0.01
2013-5-31,75.8,70.6,65.2,69.5,66.9,62.9,98,88,79,29.82,29.64,10,0,10,0.28
2013-6-1,72.7,67.8,63.0,66.9,64.7,61.9,98,90,79,29.73,29.58,12,0,12,0.68
2013-6-2,65.1,57.6,45.4,64.2,53.5,43.0,98,86,72,29.93,29.58,10,0,10,0.00
2013-6-3,66.7,53.9,41.9,50.6,45.2,41.2,98,75,46,30.01,29.92,7,0,7,0.00
2013-6-4,72.7,59.4,44.1,57.0,49.0,43.0,98,72,44,30.08,30.00,4,0,4,0.00
2013-6-5,74.9,65.5,56.8,57.2,50.5,44.7,85,59,43,30.02,29.82,4,0,4,0.00
2013-6-6,71.1,63.7,57.8,58.9,52.9,45.4,83,68,52,29.85,29.73,4,0,4,0.00
2013-6-7,71.7,62.7,53.0,57.9,53.4,49.8,92,73,55,29.82,29.76,5,0,5,0.00
2013-6-8,74.6,64.2,50.4,60.0,54.6,49.0,98,73,50,29.91,29.80,5,0,5,0.13
2013-6-9,79.3,70.4,60.4,65.8,60.1,54.7,87,71,52,29.93,29.74,3,0,3,0.00
2013-6-10,72.7,67.9,64.3,68.6,65.4,62.4,98,92,75,29.76,29.63,8,0,8,0.82
2013-6-11,81.8,70.0,60.9,70.5,64.4,60.2,98,84,58,29.82,29.70,6,0,6,0.00
2013-6-12,84.2,73.6,65.9,76.9,69.7,64.1,98,88,73,29.80,29.51,6,0,6,0.27
2013-6-13,76.3,66.3,57.0,65.2,59.7,54.5,98,81,52,29.88,29.40,15,1,15,0.16
2013-6-14,77.4,64.3,54.2,64.1,57.5,53.1,98,80,47,30.00,29.87,6,0,6,0.06
2013-6-15,73.5,65.0,56.8,66.1,61.8,56.0,98,90,73,29.98,29.78,3,0,3,0.04
2013-6-16,81.5,72.2,65.1,68.9,64.6,56.5,96,79,49,29.80,29.74,9,0,9,0.04
2013-6-17,85.3,72.9,63.4,68.9,62.1,53.9,98,72,35,29.82,29.75,9,0,9,0.03
2013-6-18,74.5,66.3,61.6,63.8,60.1,50.8,97,82,62,29.95,29.76,6,0,6,0.03
2013-6-19,75.0,64.2,53.0,58.9,50.8,46.4,84,63,39,30.05,29.94,4,0,4,0.02
2013-6-20,81.7,69.0,54.8,66.7,58.4,52.3,97,72,43,30.08,30.00,3,0,3,0.04
2013-6-21,84.3,72.9,64.8,69.6,65.8,62.4,94,80,51,30.06,29.88,10,0,10,0.02
2013-6-22,83.8,74.2,67.1,75.4,69.9,65.0,97,87,71,29.98,29.85,4,0,4,0.03
2013-6-23,86.5,76.0,66.0,73.3,68.5,64.1,96,79,58,29.96,29.85,9,0,9,0.02
2013-6-24,84.1,75.4,67.9,73.7,69.3,66.2,98,82,60,29.96,29.82,16,0,25,0.01
2013-6-25,78.2,70.5,68.1,74.7,67.9,66.5,96,91,83,29.77,29.67,10,0,13,0.03
2013-6-26,80.4,72.5,67.6,74.4,69.9,66.7,98,92,72,29.77,29.61,5,0,6,0.05
2013-6-27,83.6,73.5,67.3,74.4,70.0,66.4,99,90,65,29.65,29.55,9,0,9,0.07
2013-6-28,78.6,70.5,63.4,69.2,64.8,62.3,99,83,61,29.56,29.47,6,0,10,0.01
2013-6-29,76.0,65.6,61.7,67.2,63.1,60.5,98,92,69,29.62,29.45,5,0,5,0.01
2013-6-30,77.8,67.0,60.7,67.7,62.5,59.1,99,87,59,29.83,29.61,6,0,6,0.00
2013-7-1,75.3,65.6,57.8,65.7,55.9,47.7,82,71,52,29.93,29.83,8,0,8,0.01
2013-7-2,66.0,62.7,58.1,64.8,59.8,54.7,97,90,73,29.95,29.90,3,0,3,0.01
2013-7-3,78.4,70.1,63.8,69.7,65.7,62.9,98,87,66,29.97,29.89,5,0,6,0.01
2013-7-4,76.9,68.9,60.9,67.2,63.3,59.8,98,83,63,30.02,29.96,4,0,4,0.02
2013-7-5,80.0,72.0,63.1,71.7,66.6,61.9,98,84,68,30.00,29.92,4,0,4,0.01
2013-7-6,77.8,72.9,68.0,71.6,68.8,65.7,96,87,77,29.97,29.88,2,0,2,0.01
2013-7-7,82.4,73.7,67.8,75.3,70.5,66.9,99,90,72,29.93,29.85,8,0,8,0.02
2013-7-8,78.9,73.6,70.7,74.0,71.5,69.5,98,93,82,29.93,29.84,6,0,6,0.01
2013-7-9,85.0,75.4,70.1,79.5,74.0,69.5,99,96,79,29.89,29.76,24,0,24,0.04
2013-7-10,81.7,75.2,63.2,78.2,70.0,57.8,99,85,57,29.88,29.71,9,0,9,0.03
2013-7-11,78.2,67.2,58.2,64.2,58.3,54.3,98,76,49,29.97,29.88,6,0,8,0.06
2013-7-12,80.1,67.8,56.2,65.3,59.5,54.6,99,77,48,30.05,29.95,3,0,3,0.10
2013-7-13,81.7,70.9,59.4,68.9,64.3,58.1,98,81,59,30.06,30.01,4,0,4,0.04
2013-7-14,86.1,76.7,67.1,75.0,69.7,65.0,95,80,59,30.11,30.05,3,0,3,0.03
2013-7-15,86.0,78.2,70.6,81.2,74.7,68.9,98,89,74,30.16,30.10,4,0,4,0.07
2013-7-16,88.6,79.6,70.8,78.2,74.1,69.9,99,84,61,30.21,30.13,6,0,6,0.04
2013-7-17,89.5,80.1,71.5,79.2,74.6,70.3,98,84,64,30.20,30.05,5,0,5,0.02
2013-7-18,89.8,79.6,71.4,80.8,75.3,70.2,99,87,66,30.07,29.85,12,0,12,0.02
2013-7-19,92.2,82.7,74.1,78.8,74.6,71.6,97,78,55,29.86,29.64,13,0,13,0.01
2013-7-20,85.5,77.9,69.0,75.3,68.8,62.1,96,75,50,29.81,29.63,9,0,9,0.01
2013-7-21,83.9,73.0,65.6,71.8,66.5,62.3,96,81,56,29.87,29.76,6,0,6,0.01
2013-7-22,80.6,71.7,65.2,72.6,67.8,64.6,99,89,66,29.83,29.65,6,0,6,0.01
2013-7-23,79.1,70.3,59.6,71.6,64.7,54.1,95,83,64,29.83,29.59,11,0,12,0.01
2013-7-24,71.7,61.7,51.6,60.0,54.0,49.8,96,77,54,29.95,29.83,4,0,4,0.01
2013-7-25,75.8,64.4,54.3,64.6,57.7,52.4,98,80,54,30.01,29.94,4,0,5,0.03
2013-7-26,74.2,66.5,58.7,65.5,61.7,56.8,97,85,67,29.97,29.78,3,0,7,0.06
2013-7-27,70.5,64.5,57.1,65.2,60.2,51.7,98,86,71,29.80,29.71,14,0,14,0.05
2013-7-28,66.0,59.1,52.5,55.9,52.5,50.0,92,79,63,29.91,29.76,15,0,15,0.06
2013-7-29,71.7,62.5,55.0,61.6,56.6,51.8,92,82,66,30.09,29.90,9,0,9,0.08
2013-7-30,75.5,64.7,53.5,65.7,59.4,51.5,99,84,61,30.12,29.99,4,0,4,1.25
2013-7-31,68.2,66.4,63.7,68.2,65.4,63.0,100,97,89,29.99,29.83,2,0,3,52.43
2013-8-1,78.0,67.2,59.5,69.1,61.7,56.2,100,85,49,29.87,29.82,11,0,11,0.01
2013-8-2,76.8,65.4,56.2,72.2,63.0,54.7,99,92,79,29.87,29.73,4,0,4,0.60
2013-8-3,78.1,68.6,58.0,67.2,61.3,53.9,99,80,46,29.98,29.82,0,0,0,0.00
2013-8-4,74.6,63.3,55.2,61.6,56.7,53.8,99,81,52,30.10,29.98,0,0,0,0.10
2013-8-5,72.1,62.9,52.1,65.8,58.4,51.0,98,86,71,30.03,29.83,0,0,0,0.00
2013-8-6,76.8,69.2,62.5,72.4,66.8,61.8,99,92,82,29.85,29.77,0,0,0,0.60
2013-8-7,78.0,71.0,67.9,74.1,69.4,66.4,99,95,85,29.81,29.71,0,0,0,0.05
2013-8-8,76.4,69.2,62.2,68.6,64.7,61.0,98,86,68,29.90,29.81,0,0,0,0.12
2013-8-9,79.0,69.2,60.8,68.0,62.9,59.0,96,82,54,29.91,29.85,0,0,0,0.00
2013-8-10,79.5,70.0,62.2,68.4,64.5,59.2,98,84,56,30.01,29.91,0,0,0,0.12
2013-8-11,78.8,67.2,58.0,65.3,61.0,56.9,98,82,53,30.03,29.94,0,0,0,0.00
2013-8-12,82.0,70.5,63.5,71.7,66.7,62.0,98,89,67,29.95,29.74,0,0,0,0.27
2013-8-13,68.1,61.6,54.1,65.7,55.8,50.4,98,82,58,30.02,29.78,0,0,0,0.00
2013-8-14,68.6,57.4,47.6,56.2,50.7,46.2,98,80,54,30.11,30.02,0,0,0,0.10
2013-8-15,73.5,59.2,47.5,61.2,53.7,46.2,99,83,54,30.09,30.01,0,0,0,0.00
2013-8-16,76.2,62.7,50.4,62.0,54.6,49.3,99,78,44,30.09,30.03,0,0,0,0.10
2013-8-17,77.9,64.9,53.2,62.4,57.1,52.1,99,79,46,30.15,30.08,0,0,0,0.00
2013-8-18,79.0,66.6,55.3,66.7,60.1,53.9,99,82,51,30.11,30.00,0,0,0,0.10
2013-8-19,81.7,68.3,57.4,68.8,61.9,56.6,99,82,53,30.03,29.94,0,0,0,0.00
2013-8-20,83.6,71.3,60.4,70.6,65.1,59.2,99,82,55,30.04,29.97,1,0,1,0.10
2013-8-21,85.0,74.1,64.7,72.8,67.5,63.2,98,82,57,30.02,29.88,6,0,6,0.00
2013-8-22,77.7,70.8,65.3,72.8,68.2,64.4,99,92,81,29.99,29.89,12,0,12,0.66
2013-8-23,80.1,69.4,60.6,66.7,61.2,54.8,97,78,43,30.08,29.97,0,0,0,0.00
2013-8-24,80.8,67.1,55.8,63.6,58.0,54.6,99,76,41,30.20,30.08,0,0,0,0.08
2013-8-25,85.8,71.0,58.5,70.9,63.2,56.8,98,79,50,30.19,30.06,0,0,0,0.00
2013-8-26,86.8,74.5,61.7,75.5,68.6,60.0,98,83,64,30.08,29.90,0,0,0,0.10
2013-8-27,88.8,79.5,71.1,78.9,72.6,68.2,94,80,60,29.90,29.73,0,0,0,0.00
2013-8-28,85.2,77.2,69.9,77.2,72.0,68.0,94,84,73,29.92,29.71,1,0,3,0.12
2013-8-29,85.4,73.7,64.1,73.0,68.0,63.2,99,84,52,29.97,29.88,0,0,0,0.00
2013-8-30,87.9,76.7,65.3,76.3,70.6,64.1,99,83,59,29.88,29.63,7,0,7,0.13
2013-8-31,78.2,73.9,69.4,72.9,70.1,67.8,95,88,77,29.74,29.66,3,0,3,0.00
2013-9-1,85.0,74.7,67.7,74.8,70.2,66.3,98,86,66,29.70,29.61,6,0,6,0.00
2013-9-2,78.4,68.7,57.0,70.0,63.2,53.5,97,83,56,29.87,29.63,10,0,10,0.11
2013-9-3,74.2,62.3,54.1,60.6,56.2,52.2,97,82,58,29.97,29.86,5,0,5,0.00
2013-9-4,79.0,65.8,52.6,63.5,57.3,51.2,99,77,48,30.02,29.95,7,0,7,0.12
2013-9-5,76.6,64.3,54.5,60.0,52.2,39.8,97,69,29,30.15,30.01,4,0,4,0.00
2013-9-6,78.9,64.4,49.8,64.9,54.6,47.4,97,73,41,30.17,29.95,4,0,4,0.10
2013-9-7,86.6,71.1,60.4,70.2,64.1,56.9,94,80,51,29.95,29.81,10,0,10,0.01
2013-9-8,75.7,70.2,64.0,68.5,65.3,62.9,98,85,71,29.94,29.82,5,0,5,0.11
2013-9-9,87.8,74.6,64.1,75.4,66.3,54.8,85,76,63,29.92,29.75,5,0,5,0.00
2013-9-10,93.8,81.5,71.4,73.5,69.6,65.0,96,70,41,29.91,29.78,11,0,11,0.11
2013-9-11,91.9,78.0,71.2,74.2,70.9,67.0,96,80,47,29.94,29.81,12,0,12,0.00
2013-9-12,80.7,70.6,59.9,70.3,60.6,50.7,97,74,38,29.93,29.76,6,0,6,0.13
2013-9-13,65.4,56.3,46.9,52.0,46.6,42.6,93,71,46,30.05,29.93,11,0,11,0.00
2013-9-14,68.5,53.7,41.2,48.3,43.3,40.0,98,72,37,30.12,30.00,4,0,4,0.10
2013-10-9,68.6,57.5,51.5,51.9,49.3,45.6,88,75,47,30.10,30.08,1,0,1,0.00
2013-10-10,71.3,56.8,46.0,56.2,50.0,44.4,97,80,50,30.11,30.00,5,0,5,0.00
2013-10-11,72.0,57.4,46.4,54.7,49.5,45.1,98,77,43,30.05,29.93,3,0,3,0.00
2013-10-12,76.0,62.0,50.3,63.8,56.3,49.1,98,83,52,30.02,29.90,4,0,4,0.00
2013-10-13,64.2,53.4,42.0,59.5,47.3,40.9,99,82,48,30.30,30.02,7,0,7,0.00
2013-10-14,62.2,50.0,40.5,49.5,44.4,39.7,99,83,55,30.33,30.12,3,0,3,0.00
2013-10-15,62.7,55.6,46.0,61.6,53.3,43.9,98,92,86,30.13,29.73,2,0,2,0.00
2013-10-16,61.2,51.5,45.3,60.6,48.6,43.8,98,90,85,29.85,29.73,13,0,13,0.00
2013-10-17,51.0,49.2,44.7,49.2,47.0,42.5,96,92,88,29.84,29.72,9,0,9,0.00
2013-10-18,59.9,46.3,38.9,49.3,42.6,38.0,99,87,62,29.88,29.79,11,0,11,0.01
2013-10-19,54.6,46.1,42.4,45.6,40.4,32.4,97,82,45,29.84,29.70,14,0,14,0.00
2013-10-20,58.6,50.2,39.3,48.1,42.7,37.1,95,76,56,29.83,29.71,6,0,6,0.00
2013-10-21,55.4,49.5,41.3,48.9,42.6,30.5,92,77,64,29.84,29.72,10,0,10,0.00
2013-10-22,47.7,39.4,32.6,35.6,32.3,28.6,91,76,55,29.89,29.81,8,0,8,0.00
2013-10-23,44.0,38.0,35.0,38.8,34.8,30.3,96,89,63,29.91,29.76,10,0,10,0.00
2013-10-24,42.5,36.5,34.0,37.8,34.7,32.6,97,93,76,30.17,29.90,9,0,9,0.00
2013-10-25,47.4,38.8,32.3,38.8,33.1,29.2,98,82,51,30.30,30.02,9,0,9,0.00
2013-10-26,52.3,45.0,40.4,41.7,35.3,30.0,86,69,61,30.02,29.74,14,0,14,0.00
2013-10-27,53.1,42.3,32.5,38.4,34.5,30.4,97,76,46,29.99,29.90,6,0,9,0.00
2013-10-28,55.3,42.4,31.6,42.1,36.1,29.8,96,80,53,30.26,29.99,2,0,2,0.00
2013-10-29,54.2,44.3,35.1,44.1,38.5,32.5,91,81,62,30.31,30.08,2,0,2,0.00
2013-10-30,60.3,52.0,39.5,59.7,49.0,37.6,99,89,82,30.08,29.71,1,0,1,0.00
2013-10-31,62.7,59.2,51.2,62.4,58.9,50.4,99,99,97,29.70,29.10,11,0,14,0.00
2013-11-1,51.2,46.9,45.5,50.6,44.1,41.6,98,90,78,29.61,29.21,10,0,15,0.00
2013-11-2,48.6,44.6,41.9,45.5,42.7,39.6,98,93,79,30.01,29.60,5,0,9,0.00
2013-11-3,48.3,43.4,39.9,40.9,38.7,36.5,96,84,68,30.27,30.02,3,0,3,0.00
2013-11-4,51.7,45.8,38.9,44.0,38.9,35.3,89,77,63,30.28,30.12,7,0,7,0.01
2013-11-5,55.1,52.1,49.3,50.5,46.8,44.0,88,82,74,30.23,29.98,5,0,5,0.01
2013-11-6,56.0,50.7,41.2,54.0,48.3,39.4,98,92,71,29.98,29.71,12,0,12,0.01
2013-11-7,46.2,39.4,33.1,39.7,33.9,30.7,94,81,56,30.12,29.98,12,0,12,0.00
2013-11-8,45.5,39.3,31.5,35.5,33.4,30.3,97,80,62,30.24,30.00,5,0,5,0.00
2013-11-9,58.2,49.4,42.6,44.6,39.0,33.6,74,67,56,30.00,29.77,15,1,15,0.00
2013-11-10,47.9,41.7,34.7,36.2,33.1,30.6,92,72,59,30.23,29.91,16,1,16,0.00
2013-11-11,46.0,38.1,28.8,40.8,33.0,23.1,94,82,67,30.32,29.99,10,0,10,0.00
2013-11-12,33.0,27.9,22.5,28.7,23.2,20.0,94,83,68,30.54,30.32,10,0,10,0.00
2013-11-13,38.5,29.3,20.9,23.9,20.4,15.0,90,71,46,30.51,30.13,10,0,10,0.03
2013-11-14,49.7,39.2,30.5,29.5,25.3,21.1,74,58,42,30.13,29.90,10,0,10,0.18
2013-11-15,50.0,44.2,36.2,36.8,31.7,27.5,75,62,52,29.96,29.88,4,0,4,0.80
2013-11-16,57.5,49.6,39.6,56.7,46.5,33.9,97,89,74,29.92,29.58,9,0,9,0.71
2013-11-17,63.0,57.0,46.0,61.5,54.3,39.2,98,91,75,29.58,29.11,21,2,21,0.67
2013-11-18,46.0,39.4,35.6,39.7,32.8,27.5,88,77,68,30.12,29.57,20,2,20,0.00
2013-11-19,42.4,36.7,31.3,30.0,28.3,25.8,84,72,57,30.27,30.12,10,0,10,0.00
2013-11-20,42.6,36.6,29.2,37.8,29.8,25.3,88,77,61,30.28,30.08,10,0,10,0.03
2013-11-21,49.2,45.1,40.0,45.6,42.5,37.6,98,91,81,30.13,30.07,6,0,6,0.40
2013-11-22,46.2,39.6,29.0,45.7,37.3,27.5,99,92,76,30.34,30.06,12,1,12,0.03
2013-11-23,30.1,25.4,18.3,28.0,21.6,16.4,95,86,64,30.53,30.27,14,1,15,0.00
2013-11-24,25.0,20.0,16.6,22.3,15.7,9.9,94,84,63,30.59,30.35,6,0,6,0.00
2013-11-25,31.6,26.1,18.4,27.6,19.7,10.6,93,77,62,30.35,30.03,9,0,9,0.01
2013-11-26,34.1,30.4,26.5,29.8,27.1,22.2,92,87,78,30.03,29.88,12,0,12,0.01
2013-11-27,27.9,25.1,21.7,25.2,22.5,19.0,94,90,80,30.16,29.94,6,0,6,0.00
2013-11-28,29.9,26.2,22.5,24.2,20.7,17.7,93,80,66,30.37,30.15,5,0,5,0.00
2013-11-29,35.1,30.5,26.6,24.5,23.4,21.7,88,75,61,30.55,30.37,5,0,5,0.00
2013-11-30,46.2,36.3,29.2,34.8,29.3,24.0,86,76,61,30.39,30.00,6,0,6,0.04
2013-12-1,43.5,35.5,27.5,36.7,30.7,25.2,94,83,67,30.00,29.90,7,0,7,0.00
2013-12-2,40.2,33.4,26.1,33.2,29.7,24.6,96,86,69,29.90,29.75,7,0,7,0.00
2013-12-3,47.5,40.8,33.4,46.0,39.5,32.2,98,95,92,29.75,29.65,7,0,7,0.09
2013-12-4,59.0,50.6,43.6,57.4,49.6,42.7,99,96,88,29.71,29.48,8,0,8,0.00
2013-12-5,58.4,36.2,28.6,54.9,30.7,22.4,88,80,73,30.12,29.51,14,1,14,0.00
2013-12-6,28.6,26.6,24.1,23.1,20.5,16.1,81,77,71,30.37,30.10,9,0,9,0.00
2013-12-7,24.1,21.1,14.2,19.6,15.0,11.4,89,77,66,30.56,30.37,10,0,10,0.00
2013-12-8,26.7,21.6,14.0,25.1,17.9,11.4,95,86,71,30.50,29.86,9,1,9,0.00
2013-12-9,27.7,23.2,15.7,26.2,19.2,9.8,95,85,74,30.11,29.83,12,1,12,0.00
2013-12-10,23.6,15.3,3.8,15.3,8.8,-0.6,83,75,64,30.21,29.95,17,1,17,0.00
2013-12-11,24.2,18.0,13.3,21.6,14.3,8.5,92,85,74,30.42,30.19,13,0,13,0.00
2013-12-12,18.8,11.2,0.1,12.3,5.7,-4.4,91,78,66,30.44,30.17,12,0,12,0.00
2013-12-13,31.4,21.9,10.3,24.5,17.1,8.2,93,82,66,30.17,30.07,4,0,4,0.01
2013-12-14,27.0,24.1,20.9,24.7,22.0,18.7,94,92,88,30.09,29.78,10,0,10,0.00
2013-12-15,25.8,18.5,12.0,24.1,16.0,8.8,94,90,85,30.02,29.81,10,0,10,0.00
2013-12-16,22.3,14.8,1.6,17.0,11.5,-1.6,95,86,73,30.11,29.94,4,0,4,0.00
2013-12-17,28.0,23.3,18.6,26.2,21.3,16.5,94,92,87,29.97,29.86,6,0,6,0.00
2013-12-18,27.9,24.5,19.5,23.0,19.1,15.9,87,80,69,30.11,29.80,5,0,5,0.00
2013-12-19,42.9,38.7,27.9,38.0,35.0,22.2,96,86,79,29.88,29.73,5,0,5,0.39
2013-12-20,41.4,38.8,35.0,41.1,38.4,34.8,99,98,96,29.73,29.60,4,0,4,0.31
2013-12-21,35.8,34.5,32.8,35.5,34.2,32.5,99,99,99,29.73,29.48,7,0,7,0.49
2013-12-22,35.8,33.6,31.0,35.5,32.9,29.7,99,97,94,29.96,29.43,9,0,9,0.14
2013-12-23,31.0,23.9,9.4,29.7,20.2,5.6,95,85,75,30.33,29.95,10,1,10,0.00
2013-12-24,20.0,12.2,5.7,14.0,8.3,2.0,89,84,76,30.48,30.32,6,0,6,0.00
2013-12-25,26.8,23.3,16.8,25.6,20.0,13.9,95,87,80,30.38,30.00,9,0,9,0.00
2013-12-26,32.9,26.1,21.0,28.6,22.7,17.9,96,87,74,30.21,29.99,7,0,7,0.00
2013-12-27,40.2,35.4,31.2,33.9,31.1,28.3,91,84,75,30.22,30.01,6,0,6,0.06
2013-12-28,47.4,40.4,33.4,38.3,34.4,30.8,92,79,68,30.03,29.79,9,0,9,0.02
2013-12-29,39.7,32.6,22.9,34.3,28.8,18.8,93,86,79,30.00,29.67,19,1,19,0.00
2013-12-30,22.9,19.3,14.6,18.8,14.2,11.5,88,81,69,30.20,30.00,11,0,11,0.00
2013-12-31,16.7,15.0,14.2,13.4,11.5,8.5,91,86,71,30.27,30.06,9,0,9,0.00
2014-1-1,18.7,16.1,13.4,15.4,13.5,10.8,92,89,84,30.24,30.09,3,0,4,0.00
2014-1-2,16.9,12.3,0.1,99.9,12.1,-4.2,91,83,69,30.29,30.01,12,0,12,0.00